Huvudsida
METAR-TAF:

METAR-TAF

Flygplatser :

Kota Kinabalu International Airport

Kota Kinabalu, Malaysia

latitud: 05-56N, longitud: 116-03E, höjd: 3 m

Aktuellt väderrapport

Denna rapport gjordes för 31 minuter sedan, klockan 11:30 UTC
Vind 2 kt varierande vindriktning
Temperatur 30°C
Fuktighet 70%
Tryck 1007 hPa
Sikt 10 km eller mer
Få moln på en höjd av 1500 ft
Spridda moln på en höjd av 14000 ft
Brutna moln på en höjd av 27000 ft

METAR: WBKK 161130Z VRB02KT 9999 FEW015 SCT140 BKN270 30/24 Q1007 NOSIG

Tid: 20:01 (12:01 UTC)

Väderprognos

Denna rapport gjordes för 1 timme och 1 minuter sedan, klockan 11:00 UTC
Prognos gäller från 16 kl. 12 UTC till 17 kl. 12 UTC
Vind 5 kt från ost/sydost
Sikt 10 km eller mer
Få moln på en höjd av 1500 ft
Blir
från 17 kl. 00 UTC till 17 kl. 02 UTC
Vind 3 kt varierande vindriktning

TAF: WBKK 161100Z 1612/1712 11005KT 9999 FEW015 BECMG 1700/1702 VRB03KT

Aktuella väderrapporter och prognoser från 4000 flygplatser (METAR- och TAF-rapporter).

De tillgängliga stationerna syns som gula och röda prickar på kartan.

För musen över prickarna för att se namnen på stationerna.

Klicka sedan för att få väderrapporter och prognoser.

För att ändra kartan: Klicka på de gröna knapparna med ett svart kors på för att zooma in; den gröna knappen med ett streck på för att zooma ut; eller på de gröna pilarna för angränsande kartor.


METAR-TAF: